sensor_id;sensor_type;location;lat;lon;timestamp;P1;durP1;ratioP1;P2;durP2;ratioP2
23252;SDS011;11795;47.054;15.408;2023-08-07T00:00:00;0.6;;;0.4;;
23252;SDS011;11795;47.054;15.408;2023-08-07T00:02:00;0.8;;;0.4;;
23252;SDS011;11795;47.054;15.408;2023-08-07T00:04:00;0.8;;;0.4;;
23252;SDS011;11795;47.054;15.408;2023-08-07T00:06:00;0.9;;;0.3;;
23252;SDS011;11795;47.054;15.408;2023-08-07T00:08:00;0.9;;;0.3;;
23252;SDS011;11795;47.054;15.408;2023-08-07T00:10:01;0.9;;;0.3;;
23252;SDS011;11795;47.054;15.408;2023-08-07T00:12:00;0.2;;;0.2;;
23252;SDS011;11795;47.054;15.408;2023-08-07T00:14:00;0.2;;;0.2;;
23252;SDS011;11795;47.054;15.408;2023-08-07T00:16:00;1.3;;;0.2;;
23252;SDS011;11795;47.054;15.408;2023-08-07T00:18:00;1.3;;;0.2;;
23252;SDS011;11795;47.054;15.408;2023-08-07T00:20:00;1.3;;;0.2;;
23252;SDS011;11795;47.054;15.408;2023-08-07T00:22:02;1.0;;;0.3;;
23252;SDS011;11795;47.054;15.408;2023-08-07T00:24:00;1.0;;;0.3;;
23252;SDS011;11795;47.054;15.408;2023-08-07T00:26:00;0.5;;;0.3;;
23252;SDS011;11795;47.054;15.408;2023-08-07T00:28:00;0.5;;;0.3;;
23252;SDS011;11795;47.054;15.408;2023-08-07T00:30:00;0.5;;;0.3;;
23252;SDS011;11795;47.054;15.408;2023-08-07T00:32:00;0.8;;;0.3;;
23252;SDS011;11795;47.054;15.408;2023-08-07T00:34:00;0.8;;;0.3;;
23252;SDS011;11795;47.054;15.408;2023-08-07T00:36:00;0.9;;;0.3;;
23252;SDS011;11795;47.054;15.408;2023-08-07T00:38:00;0.9;;;0.3;;
23252;SDS011;11795;47.054;15.408;2023-08-07T00:40:00;0.9;;;0.3;;
23252;SDS011;11795;47.054;15.408;2023-08-07T00:42:00;0.7;;;0.3;;
23252;SDS011;11795;47.054;15.408;2023-08-07T00:44:00;0.7;;;0.3;;
23252;SDS011;11795;47.054;15.408;2023-08-07T00:46:00;0.7;;;0.3;;
23252;SDS011;11795;47.054;15.408;2023-08-07T00:48:00;0.3;;;0.2;;
23252;SDS011;11795;47.054;15.408;2023-08-07T00:50:00;0.3;;;0.2;;
23252;SDS011;11795;47.054;15.408;2023-08-07T00:52:00;1.1;;;0.3;;
23252;SDS011;11795;47.054;15.408;2023-08-07T00:54:00;1.1;;;0.3;;
23252;SDS011;11795;47.054;15.408;2023-08-07T00:56:02;1.1;;;0.3;;
23252;SDS011;11795;47.054;15.408;2023-08-07T00:58:00;1.2;;;0.3;;
23252;SDS011;11795;47.054;15.408;2023-08-07T01:00:01;1.2;;;0.3;;
23252;SDS011;11795;47.054;15.408;2023-08-07T01:02:00;0.4;;;0.3;;
23252;SDS011;11795;47.054;15.408;2023-08-07T01:04:00;0.4;;;0.3;;
23252;SDS011;11795;47.054;15.408;2023-08-07T01:06:01;0.4;;;0.3;;
23252;SDS011;11795;47.054;15.408;2023-08-07T01:08:00;0.4;;;0.2;;
23252;SDS011;11795;47.054;15.408;2023-08-07T01:10:04;0.4;;;0.2;;
23252;SDS011;11795;47.054;15.408;2023-08-07T01:12:02;0.6;;;0.5;;
23252;SDS011;11795;47.054;15.408;2023-08-07T01:14:01;0.6;;;0.5;;
23252;SDS011;11795;47.054;15.408;2023-08-07T01:16:01;0.6;;;0.5;;
23252;SDS011;11795;47.054;15.408;2023-08-07T01:18:00;0.8;;;0.3;;
23252;SDS011;11795;47.054;15.408;2023-08-07T01:20:00;0.8;;;0.3;;
23252;SDS011;11795;47.054;15.408;2023-08-07T01:22:04;0.9;;;0.3;;
23252;SDS011;11795;47.054;15.408;2023-08-07T01:24:00;0.9;;;0.3;;
23252;SDS011;11795;47.054;15.408;2023-08-07T01:26:00;0.9;;;0.3;;
23252;SDS011;11795;47.054;15.408;2023-08-07T01:28:02;0.7;;;0.2;;
23252;SDS011;11795;47.054;15.408;2023-08-07T01:30:03;0.7;;;0.2;;
23252;SDS011;11795;47.054;15.408;2023-08-07T01:32:00;0.4;;;0.4;;
23252;SDS011;11795;47.054;15.408;2023-08-07T01:34:01;0.4;;;0.4;;
23252;SDS011;11795;47.054;15.408;2023-08-07T01:36:01;0.4;;;0.4;;
23252;SDS011;11795;47.054;15.408;2023-08-07T01:38:00;0.6;;;0.4;;
23252;SDS011;11795;47.054;15.408;2023-08-07T01:40:00;0.6;;;0.4;;
23252;SDS011;11795;47.054;15.408;2023-08-07T01:42:03;0.4;;;0.4;;
23252;SDS011;11795;47.054;15.408;2023-08-07T01:44:00;0.4;;;0.4;;
23252;SDS011;11795;47.054;15.408;2023-08-07T01:46:01;0.4;;;0.4;;
23252;SDS011;11795;47.054;15.408;2023-08-07T01:48:00;0.4;;;0.3;;
23252;SDS011;11795;47.054;15.408;2023-08-07T01:50:00;0.4;;;0.3;;
23252;SDS011;11795;47.054;15.408;2023-08-07T01:52:00;0.8;;;0.3;;
23252;SDS011;11795;47.054;15.408;2023-08-07T01:54:00;0.8;;;0.3;;
23252;SDS011;11795;47.054;15.408;2023-08-07T01:56:00;0.8;;;0.3;;
23252;SDS011;11795;47.054;15.408;2023-08-07T01:58:00;1.0;;;0.3;;
23252;SDS011;11795;47.054;15.408;2023-08-07T02:00:00;1.0;;;0.3;;
23252;SDS011;11795;47.054;15.408;2023-08-07T02:02:00;1.3;;;0.4;;
23252;SDS011;11795;47.054;15.408;2023-08-07T02:04:00;1.3;;;0.4;;
23252;SDS011;11795;47.054;15.408;2023-08-07T02:06:01;1.3;;;0.4;;
23252;SDS011;11795;47.054;15.408;2023-08-07T02:08:00;1.5;;;0.4;;
23252;SDS011;11795;47.054;15.408;2023-08-07T02:10:00;1.5;;;0.4;;
23252;SDS011;11795;47.054;15.408;2023-08-07T02:12:01;1.9;;;0.3;;
23252;SDS011;11795;47.054;15.408;2023-08-07T02:14:00;1.9;;;0.3;;
23252;SDS011;11795;47.054;15.408;2023-08-07T02:16:00;1.9;;;0.3;;
23252;SDS011;11795;47.054;15.408;2023-08-07T02:18:00;0.9;;;0.3;;
23252;SDS011;11795;47.054;15.408;2023-08-07T02:20:00;0.9;;;0.3;;
23252;SDS011;11795;47.054;15.408;2023-08-07T02:22:00;0.5;;;0.4;;
23252;SDS011;11795;47.054;15.408;2023-08-07T02:24:00;0.5;;;0.4;;
23252;SDS011;11795;47.054;15.408;2023-08-07T02:26:01;0.5;;;0.4;;
23252;SDS011;11795;47.054;15.408;2023-08-07T02:28:00;1.0;;;0.3;;
23252;SDS011;11795;47.054;15.408;2023-08-07T02:30:03;1.0;;;0.3;;
23252;SDS011;11795;47.054;15.408;2023-08-07T02:32:01;1.1;;;0.6;;
23252;SDS011;11795;47.054;15.408;2023-08-07T02:34:00;1.1;;;0.6;;
23252;SDS011;11795;47.054;15.408;2023-08-07T02:36:00;1.1;;;0.6;;
23252;SDS011;11795;47.054;15.408;2023-08-07T02:38:00;2.3;;;0.5;;
23252;SDS011;11795;47.054;15.408;2023-08-07T02:40:00;2.3;;;0.5;;
23252;SDS011;11795;47.054;15.408;2023-08-07T02:42:00;1.5;;;0.5;;
23252;SDS011;11795;47.054;15.408;2023-08-07T02:44:00;1.5;;;0.5;;
23252;SDS011;11795;47.054;15.408;2023-08-07T02:46:00;1.5;;;0.5;;
23252;SDS011;11795;47.054;15.408;2023-08-07T02:48:00;0.8;;;0.2;;
23252;SDS011;11795;47.054;15.408;2023-08-07T02:50:00;0.8;;;0.2;;
23252;SDS011;11795;47.054;15.408;2023-08-07T02:52:01;1.7;;;0.3;;
23252;SDS011;11795;47.054;15.408;2023-08-07T02:54:00;1.7;;;0.3;;
23252;SDS011;11795;47.054;15.408;2023-08-07T02:56:00;1.7;;;0.3;;
23252;SDS011;11795;47.054;15.408;2023-08-07T02:58:00;0.4;;;0.2;;
23252;SDS011;11795;47.054;15.408;2023-08-07T03:00:00;0.4;;;0.2;;
23252;SDS011;11795;47.054;15.408;2023-08-07T03:02:00;1.6;;;0.4;;
23252;SDS011;11795;47.054;15.408;2023-08-07T03:04:00;1.6;;;0.4;;
23252;SDS011;11795;47.054;15.408;2023-08-07T03:06:00;1.6;;;0.4;;
23252;SDS011;11795;47.054;15.408;2023-08-07T03:08:00;0.8;;;0.2;;
23252;SDS011;11795;47.054;15.408;2023-08-07T03:10:00;0.8;;;0.2;;
23252;SDS011;11795;47.054;15.408;2023-08-07T03:12:03;0.9;;;0.3;;
23252;SDS011;11795;47.054;15.408;2023-08-07T03:14:00;0.9;;;0.3;;
23252;SDS011;11795;47.054;15.408;2023-08-07T03:16:00;0.9;;;0.3;;
23252;SDS011;11795;47.054;15.408;2023-08-07T03:18:00;1.1;;;0.3;;
23252;SDS011;11795;47.054;15.408;2023-08-07T03:20:00;1.1;;;0.3;;
23252;SDS011;11795;47.054;15.408;2023-08-07T03:22:00;1.2;;;0.4;;
23252;SDS011;11795;47.054;15.408;2023-08-07T03:24:00;1.2;;;0.4;;
23252;SDS011;11795;47.054;15.408;2023-08-07T03:26:02;1.2;;;0.4;;
23252;SDS011;11795;47.054;15.408;2023-08-07T03:28:00;1.5;;;0.4;;
23252;SDS011;11795;47.054;15.408;2023-08-07T03:30:00;1.5;;;0.4;;
23252;SDS011;11795;47.054;15.408;2023-08-07T03:32:00;1.0;;;0.3;;
23252;SDS011;11795;47.054;15.408;2023-08-07T03:34:00;1.0;;;0.3;;
23252;SDS011;11795;47.054;15.408;2023-08-07T03:36:00;1.0;;;0.3;;
23252;SDS011;11795;47.054;15.408;2023-08-07T03:38:00;1.4;;;0.4;;
23252;SDS011;11795;47.054;15.408;2023-08-07T03:40:00;1.4;;;0.4;;
23252;SDS011;11795;47.054;15.408;2023-08-07T03:42:00;1.6;;;0.4;;
23252;SDS011;11795;47.054;15.408;2023-08-07T03:44:00;1.6;;;0.4;;
23252;SDS011;11795;47.054;15.408;2023-08-07T03:46:00;1.6;;;0.4;;
23252;SDS011;11795;47.054;15.408;2023-08-07T03:48:00;1.2;;;0.5;;
23252;SDS011;11795;47.054;15.408;2023-08-07T03:50:00;1.2;;;0.5;;
23252;SDS011;11795;47.054;15.408;2023-08-07T03:52:00;0.5;;;0.4;;
23252;SDS011;11795;47.054;15.408;2023-08-07T03:54:00;0.5;;;0.4;;
23252;SDS011;11795;47.054;15.408;2023-08-07T03:56:00;0.5;;;0.4;;
23252;SDS011;11795;47.054;15.408;2023-08-07T03:58:00;0.7;;;0.4;;
23252;SDS011;11795;47.054;15.408;2023-08-07T04:00:00;0.7;;;0.4;;
23252;SDS011;11795;47.054;15.408;2023-08-07T04:02:00;0.9;;;0.4;;
23252;SDS011;11795;47.054;15.408;2023-08-07T04:04:00;0.9;;;0.4;;
23252;SDS011;11795;47.054;15.408;2023-08-07T04:06:01;0.9;;;0.4;;
23252;SDS011;11795;47.054;15.408;2023-08-07T04:08:00;0.8;;;0.5;;
23252;SDS011;11795;47.054;15.408;2023-08-07T04:10:00;0.8;;;0.5;;
23252;SDS011;11795;47.054;15.408;2023-08-07T04:12:00;1.5;;;0.6;;
23252;SDS011;11795;47.054;15.408;2023-08-07T04:14:00;1.5;;;0.6;;
23252;SDS011;11795;47.054;15.408;2023-08-07T04:16:01;1.5;;;0.6;;
23252;SDS011;11795;47.054;15.408;2023-08-07T04:18:01;1.1;;;0.7;;
23252;SDS011;11795;47.054;15.408;2023-08-07T04:20:00;1.1;;;0.7;;
23252;SDS011;11795;47.054;15.408;2023-08-07T04:22:00;1.6;;;0.7;;
23252;SDS011;11795;47.054;15.408;2023-08-07T04:24:00;1.6;;;0.7;;
23252;SDS011;11795;47.054;15.408;2023-08-07T04:26:00;1.6;;;0.7;;
23252;SDS011;11795;47.054;15.408;2023-08-07T04:28:00;1.3;;;0.5;;
23252;SDS011;11795;47.054;15.408;2023-08-07T04:30:00;1.3;;;0.5;;
23252;SDS011;11795;47.054;15.408;2023-08-07T04:32:00;0.7;;;0.5;;
23252;SDS011;11795;47.054;15.408;2023-08-07T04:34:00;0.7;;;0.5;;
23252;SDS011;11795;47.054;15.408;2023-08-07T04:36:00;0.7;;;0.5;;
23252;SDS011;11795;47.054;15.408;2023-08-07T04:38:01;0.8;;;0.5;;
23252;SDS011;11795;47.054;15.408;2023-08-07T04:40:00;0.8;;;0.5;;
23252;SDS011;11795;47.054;15.408;2023-08-07T04:42:00;0.6;;;0.4;;
23252;SDS011;11795;47.054;15.408;2023-08-07T04:44:00;0.6;;;0.4;;
23252;SDS011;11795;47.054;15.408;2023-08-07T04:46:00;0.6;;;0.4;;
23252;SDS011;11795;47.054;15.408;2023-08-07T04:48:00;0.7;;;0.5;;
23252;SDS011;11795;47.054;15.408;2023-08-07T04:50:00;0.7;;;0.5;;
23252;SDS011;11795;47.054;15.408;2023-08-07T04:52:00;1.3;;;0.5;;
23252;SDS011;11795;47.054;15.408;2023-08-07T04:54:01;1.3;;;0.5;;
23252;SDS011;11795;47.054;15.408;2023-08-07T04:56:00;1.3;;;0.5;;
23252;SDS011;11795;47.054;15.408;2023-08-07T04:58:00;2.1;;;0.7;;
23252;SDS011;11795;47.054;15.408;2023-08-07T05:00:00;2.1;;;0.7;;
23252;SDS011;11795;47.054;15.408;2023-08-07T05:02:00;2.0;;;0.7;;
23252;SDS011;11795;47.054;15.408;2023-08-07T05:04:01;2.0;;;0.7;;
23252;SDS011;11795;47.054;15.408;2023-08-07T05:06:01;2.0;;;0.7;;
23252;SDS011;11795;47.054;15.408;2023-08-07T05:08:01;1.0;;;0.5;;
23252;SDS011;11795;47.054;15.408;2023-08-07T05:10:01;1.0;;;0.5;;
23252;SDS011;11795;47.054;15.408;2023-08-07T05:12:00;1.5;;;0.6;;
23252;SDS011;11795;47.054;15.408;2023-08-07T05:14:00;1.5;;;0.6;;
23252;SDS011;11795;47.054;15.408;2023-08-07T05:16:00;1.5;;;0.6;;
23252;SDS011;11795;47.054;15.408;2023-08-07T05:18:00;2.1;;;0.6;;
23252;SDS011;11795;47.054;15.408;2023-08-07T05:20:00;2.1;;;0.6;;
23252;SDS011;11795;47.054;15.408;2023-08-07T05:22:00;1.9;;;0.6;;
23252;SDS011;11795;47.054;15.408;2023-08-07T05:24:00;1.9;;;0.6;;
23252;SDS011;11795;47.054;15.408;2023-08-07T05:26:00;1.9;;;0.6;;
23252;SDS011;11795;47.054;15.408;2023-08-07T05:28:00;1.9;;;0.7;;
23252;SDS011;11795;47.054;15.408;2023-08-07T05:30:00;1.9;;;0.7;;
23252;SDS011;11795;47.054;15.408;2023-08-07T05:32:00;1.6;;;0.7;;
23252;SDS011;11795;47.054;15.408;2023-08-07T05:34:00;1.6;;;0.7;;
23252;SDS011;11795;47.054;15.408;2023-08-07T05:36:00;1.6;;;0.7;;
23252;SDS011;11795;47.054;15.408;2023-08-07T05:38:00;2.4;;;0.6;;
23252;SDS011;11795;47.054;15.408;2023-08-07T05:40:00;2.4;;;0.6;;
23252;SDS011;11795;47.054;15.408;2023-08-07T05:42:00;1.5;;;0.7;;
23252;SDS011;11795;47.054;15.408;2023-08-07T05:44:00;1.5;;;0.7;;
23252;SDS011;11795;47.054;15.408;2023-08-07T05:46:00;1.5;;;0.7;;
23252;SDS011;11795;47.054;15.408;2023-08-07T05:48:00;1.6;;;0.9;;
23252;SDS011;11795;47.054;15.408;2023-08-07T05:50:00;1.6;;;0.9;;
23252;SDS011;11795;47.054;15.408;2023-08-07T05:52:00;1.6;;;0.8;;
23252;SDS011;11795;47.054;15.408;2023-08-07T05:54:00;1.6;;;0.8;;
23252;SDS011;11795;47.054;15.408;2023-08-07T05:56:00;1.6;;;0.8;;
23252;SDS011;11795;47.054;15.408;2023-08-07T05:58:00;2.7;;;1.5;;
23252;SDS011;11795;47.054;15.408;2023-08-07T06:00:01;2.7;;;1.5;;
23252;SDS011;11795;47.054;15.408;2023-08-07T06:02:00;2.5;;;1.7;;
23252;SDS011;11795;47.054;15.408;2023-08-07T06:04:01;2.5;;;1.7;;
23252;SDS011;11795;47.054;15.408;2023-08-07T06:06:01;2.5;;;1.7;;
23252;SDS011;11795;47.054;15.408;2023-08-07T06:08:00;2.2;;;1.6;;
23252;SDS011;11795;47.054;15.408;2023-08-07T06:10:00;2.2;;;1.6;;
23252;SDS011;11795;47.054;15.408;2023-08-07T06:12:00;2.7;;;1.3;;
23252;SDS011;11795;47.054;15.408;2023-08-07T06:14:00;2.7;;;1.3;;
23252;SDS011;11795;47.054;15.408;2023-08-07T06:16:00;2.7;;;1.3;;
23252;SDS011;11795;47.054;15.408;2023-08-07T06:18:00;3.6;;;1.1;;
23252;SDS011;11795;47.054;15.408;2023-08-07T06:20:00;3.6;;;1.1;;
23252;SDS011;11795;47.054;15.408;2023-08-07T06:22:00;2.2;;;1.0;;
23252;SDS011;11795;47.054;15.408;2023-08-07T06:24:04;2.2;;;1.0;;
23252;SDS011;11795;47.054;15.408;2023-08-07T06:26:04;2.2;;;1.0;;
23252;SDS011;11795;47.054;15.408;2023-08-07T06:28:00;2.5;;;0.8;;
23252;SDS011;11795;47.054;15.408;2023-08-07T06:30:01;2.5;;;0.8;;
23252;SDS011;11795;47.054;15.408;2023-08-07T06:32:00;2.0;;;0.9;;
23252;SDS011;11795;47.054;15.408;2023-08-07T06:34:00;2.0;;;0.9;;
23252;SDS011;11795;47.054;15.408;2023-08-07T06:36:00;2.0;;;0.9;;
23252;SDS011;11795;47.054;15.408;2023-08-07T06:38:00;4.0;;;1.0;;
23252;SDS011;11795;47.054;15.408;2023-08-07T06:40:01;4.0;;;1.0;;
23252;SDS011;11795;47.054;15.408;2023-08-07T06:42:01;3.1;;;1.4;;
23252;SDS011;11795;47.054;15.408;2023-08-07T06:44:00;3.1;;;1.4;;
23252;SDS011;11795;47.054;15.408;2023-08-07T06:46:00;3.1;;;1.4;;
23252;SDS011;11795;47.054;15.408;2023-08-07T06:48:00;2.6;;;1.5;;
23252;SDS011;11795;47.054;15.408;2023-08-07T06:50:00;2.6;;;1.5;;
23252;SDS011;11795;47.054;15.408;2023-08-07T06:52:00;4.4;;;1.2;;
23252;SDS011;11795;47.054;15.408;2023-08-07T06:54:00;4.4;;;1.2;;
23252;SDS011;11795;47.054;15.408;2023-08-07T06:56:00;4.4;;;1.2;;
23252;SDS011;11795;47.054;15.408;2023-08-07T06:58:00;2.9;;;1.1;;
23252;SDS011;11795;47.054;15.408;2023-08-07T07:00:00;2.9;;;1.1;;
23252;SDS011;11795;47.054;15.408;2023-08-07T07:02:00;2.6;;;1.0;;
23252;SDS011;11795;47.054;15.408;2023-08-07T07:04:00;2.6;;;1.0;;
23252;SDS011;11795;47.054;15.408;2023-08-07T07:06:00;2.6;;;1.0;;
23252;SDS011;11795;47.054;15.408;2023-08-07T07:08:00;2.7;;;1.0;;
23252;SDS011;11795;47.054;15.408;2023-08-07T07:10:00;2.7;;;1.0;;
23252;SDS011;11795;47.054;15.408;2023-08-07T07:12:00;1.2;;;0.8;;
23252;SDS011;11795;47.054;15.408;2023-08-07T07:14:00;1.2;;;0.8;;
23252;SDS011;11795;47.054;15.408;2023-08-07T07:16:00;1.2;;;0.8;;
23252;SDS011;11795;47.054;15.408;2023-08-07T07:18:00;2.5;;;0.7;;
23252;SDS011;11795;47.054;15.408;2023-08-07T07:20:00;2.5;;;0.7;;
23252;SDS011;11795;47.054;15.408;2023-08-07T07:22:00;2.5;;;0.7;;
23252;SDS011;11795;47.054;15.408;2023-08-07T07:24:01;1.6;;;0.5;;
23252;SDS011;11795;47.054;15.408;2023-08-07T07:26:00;1.6;;;0.5;;
23252;SDS011;11795;47.054;15.408;2023-08-07T07:28:00;1.7;;;0.4;;
23252;SDS011;11795;47.054;15.408;2023-08-07T07:30:00;1.7;;;0.4;;
23252;SDS011;11795;47.054;15.408;2023-08-07T07:32:00;1.7;;;0.4;;
23252;SDS011;11795;47.054;15.408;2023-08-07T07:34:00;1.3;;;0.4;;
23252;SDS011;11795;47.054;15.408;2023-08-07T07:36:01;1.3;;;0.4;;
23252;SDS011;11795;47.054;15.408;2023-08-07T07:38:00;1.1;;;0.4;;
23252;SDS011;11795;47.054;15.408;2023-08-07T07:40:00;1.1;;;0.4;;
23252;SDS011;11795;47.054;15.408;2023-08-07T07:42:01;1.1;;;0.4;;
23252;SDS011;11795;47.054;15.408;2023-08-07T07:44:02;1.2;;;0.6;;
23252;SDS011;11795;47.054;15.408;2023-08-07T07:46:00;1.2;;;0.6;;
23252;SDS011;11795;47.054;15.408;2023-08-07T07:48:00;3.4;;;0.8;;
23252;SDS011;11795;47.054;15.408;2023-08-07T07:50:04;3.4;;;0.8;;
23252;SDS011;11795;47.054;15.408;2023-08-07T07:52:00;3.4;;;0.8;;
23252;SDS011;11795;47.054;15.408;2023-08-07T07:54:00;1.2;;;0.6;;
23252;SDS011;11795;47.054;15.408;2023-08-07T07:56:00;1.2;;;0.6;;
23252;SDS011;11795;47.054;15.408;2023-08-07T07:58:00;1.2;;;0.5;;
23252;SDS011;11795;47.054;15.408;2023-08-07T08:00:01;1.2;;;0.5;;
23252;SDS011;11795;47.054;15.408;2023-08-07T08:02:01;1.2;;;0.5;;
23252;SDS011;11795;47.054;15.408;2023-08-07T08:04:00;0.7;;;0.4;;
23252;SDS011;11795;47.054;15.408;2023-08-07T08:06:00;0.7;;;0.4;;
23252;SDS011;11795;47.054;15.408;2023-08-07T08:08:01;0.8;;;0.3;;
23252;SDS011;11795;47.054;15.408;2023-08-07T08:10:00;0.8;;;0.3;;
23252;SDS011;11795;47.054;15.408;2023-08-07T08:12:00;0.8;;;0.3;;
23252;SDS011;11795;47.054;15.408;2023-08-07T08:14:00;0.5;;;0.3;;
23252;SDS011;11795;47.054;15.408;2023-08-07T08:16:00;0.5;;;0.3;;
23252;SDS011;11795;47.054;15.408;2023-08-07T08:18:00;0.2;;;0.2;;
23252;SDS011;11795;47.054;15.408;2023-08-07T08:20:00;0.2;;;0.2;;
23252;SDS011;11795;47.054;15.408;2023-08-07T08:22:00;0.2;;;0.2;;
23252;SDS011;11795;47.054;15.408;2023-08-07T08:24:00;0.3;;;0.1;;
23252;SDS011;11795;47.054;15.408;2023-08-07T08:26:00;0.3;;;0.1;;
23252;SDS011;11795;47.054;15.408;2023-08-07T08:28:00;0.3;;;0.2;;
23252;SDS011;11795;47.054;15.408;2023-08-07T08:30:01;0.3;;;0.2;;
23252;SDS011;11795;47.054;15.408;2023-08-07T08:32:00;0.3;;;0.2;;
23252;SDS011;11795;47.054;15.408;2023-08-07T08:34:00;0.2;;;0.1;;
23252;SDS011;11795;47.054;15.408;2023-08-07T08:36:00;0.2;;;0.1;;
23252;SDS011;11795;47.054;15.408;2023-08-07T08:38:00;1.0;;;0.1;;
23252;SDS011;11795;47.054;15.408;2023-08-07T08:40:00;1.0;;;0.1;;
23252;SDS011;11795;47.054;15.408;2023-08-07T08:42:00;1.0;;;0.1;;
23252;SDS011;11795;47.054;15.408;2023-08-07T08:44:00;0.1;;;0.1;;
23252;SDS011;11795;47.054;15.408;2023-08-07T08:46:00;0.1;;;0.1;;
23252;SDS011;11795;47.054;15.408;2023-08-07T08:48:01;0.3;;;0.1;;
23252;SDS011;11795;47.054;15.408;2023-08-07T08:50:01;0.3;;;0.1;;
23252;SDS011;11795;47.054;15.408;2023-08-07T08:52:00;0.3;;;0.1;;
23252;SDS011;11795;47.054;15.408;2023-08-07T08:54:01;0.3;;;0.1;;
23252;SDS011;11795;47.054;15.408;2023-08-07T08:56:00;0.3;;;0.1;;
23252;SDS011;11795;47.054;15.408;2023-08-07T08:58:01;0.1;;;0.1;;
23252;SDS011;11795;47.054;15.408;2023-08-07T09:00:00;0.1;;;0.1;;
23252;SDS011;11795;47.054;15.408;2023-08-07T09:02:00;0.1;;;0.1;;
23252;SDS011;11795;47.054;15.408;2023-08-07T09:04:00;0.2;;;0.1;;
23252;SDS011;11795;47.054;15.408;2023-08-07T09:06:00;0.2;;;0.1;;
23252;SDS011;11795;47.054;15.408;2023-08-07T09:08:01;0.5;;;0.2;;
23252;SDS011;11795;47.054;15.408;2023-08-07T09:10:01;0.5;;;0.2;;
23252;SDS011;11795;47.054;15.408;2023-08-07T09:12:00;0.5;;;0.2;;
23252;SDS011;11795;47.054;15.408;2023-08-07T09:14:01;0.6;;;0.1;;
23252;SDS011;11795;47.054;15.408;2023-08-07T09:16:00;0.6;;;0.1;;
23252;SDS011;11795;47.054;15.408;2023-08-07T09:18:00;1.3;;;0.1;;
23252;SDS011;11795;47.054;15.408;2023-08-07T09:20:00;1.3;;;0.1;;
23252;SDS011;11795;47.054;15.408;2023-08-07T09:22:00;1.3;;;0.1;;
23252;SDS011;11795;47.054;15.408;2023-08-07T09:24:00;0.8;;;0.2;;
23252;SDS011;11795;47.054;15.408;2023-08-07T09:26:01;0.8;;;0.2;;
23252;SDS011;11795;47.054;15.408;2023-08-07T09:28:01;0.2;;;0.1;;
23252;SDS011;11795;47.054;15.408;2023-08-07T09:30:00;0.2;;;0.1;;
23252;SDS011;11795;47.054;15.408;2023-08-07T09:32:06;0.2;;;0.1;;
23252;SDS011;11795;47.054;15.408;2023-08-07T09:34:01;0.2;;;0.1;;
23252;SDS011;11795;47.054;15.408;2023-08-07T09:36:01;0.2;;;0.1;;
23252;SDS011;11795;47.054;15.408;2023-08-07T09:38:00;0.3;;;0.3;;
23252;SDS011;11795;47.054;15.408;2023-08-07T09:40:00;0.3;;;0.3;;
23252;SDS011;11795;47.054;15.408;2023-08-07T09:42:00;0.3;;;0.3;;
23252;SDS011;11795;47.054;15.408;2023-08-07T09:44:05;0.3;;;0.3;;
23252;SDS011;11795;47.054;15.408;2023-08-07T09:46:02;0.3;;;0.3;;
23252;SDS011;11795;47.054;15.408;2023-08-07T09:48:01;0.2;;;0.1;;
23252;SDS011;11795;47.054;15.408;2023-08-07T09:50:00;0.2;;;0.1;;
23252;SDS011;11795;47.054;15.408;2023-08-07T09:52:00;0.2;;;0.1;;
23252;SDS011;11795;47.054;15.408;2023-08-07T09:54:00;1.6;;;0.7;;
23252;SDS011;11795;47.054;15.408;2023-08-07T09:56:01;1.6;;;0.7;;
23252;SDS011;11795;47.054;15.408;2023-08-07T09:58:00;1.0;;;0.7;;
23252;SDS011;11795;47.054;15.408;2023-08-07T10:00:00;1.0;;;0.7;;
23252;SDS011;11795;47.054;15.408;2023-08-07T10:02:02;1.0;;;0.7;;
23252;SDS011;11795;47.054;15.408;2023-08-07T10:04:00;0.3;;;0.2;;
23252;SDS011;11795;47.054;15.408;2023-08-07T10:06:00;0.3;;;0.2;;
23252;SDS011;11795;47.054;15.408;2023-08-07T10:08:00;0.3;;;0.2;;
23252;SDS011;11795;47.054;15.408;2023-08-07T10:10:00;0.3;;;0.2;;
23252;SDS011;11795;47.054;15.408;2023-08-07T10:12:00;0.3;;;0.2;;
23252;SDS011;11795;47.054;15.408;2023-08-07T10:14:00;0.3;;;0.1;;
23252;SDS011;11795;47.054;15.408;2023-08-07T10:16:00;0.3;;;0.1;;
23252;SDS011;11795;47.054;15.408;2023-08-07T10:18:00;0.9;;;0.2;;
23252;SDS011;11795;47.054;15.408;2023-08-07T10:20:01;0.9;;;0.2;;
23252;SDS011;11795;47.054;15.408;2023-08-07T10:22:00;0.9;;;0.2;;
23252;SDS011;11795;47.054;15.408;2023-08-07T10:24:00;0.7;;;0.5;;
23252;SDS011;11795;47.054;15.408;2023-08-07T10:26:00;0.7;;;0.5;;
23252;SDS011;11795;47.054;15.408;2023-08-07T10:28:00;0.9;;;0.5;;
23252;SDS011;11795;47.054;15.408;2023-08-07T10:30:01;0.9;;;0.5;;
23252;SDS011;11795;47.054;15.408;2023-08-07T10:32:00;0.9;;;0.5;;
23252;SDS011;11795;47.054;15.408;2023-08-07T10:34:01;0.4;;;0.2;;
23252;SDS011;11795;47.054;15.408;2023-08-07T10:36:01;0.4;;;0.2;;
23252;SDS011;11795;47.054;15.408;2023-08-07T10:38:05;0.3;;;0.1;;
23252;SDS011;11795;47.054;15.408;2023-08-07T10:40:01;0.3;;;0.1;;
23252;SDS011;11795;47.054;15.408;2023-08-07T10:42:00;0.3;;;0.1;;
23252;SDS011;11795;47.054;15.408;2023-08-07T10:44:00;0.3;;;0.2;;
23252;SDS011;11795;47.054;15.408;2023-08-07T10:46:03;0.3;;;0.2;;
23252;SDS011;11795;47.054;15.408;2023-08-07T10:48:01;0.4;;;0.2;;
23252;SDS011;11795;47.054;15.408;2023-08-07T10:50:00;0.4;;;0.2;;
23252;SDS011;11795;47.054;15.408;2023-08-07T10:52:02;0.4;;;0.2;;
23252;SDS011;11795;47.054;15.408;2023-08-07T10:54:01;0.6;;;0.3;;
23252;SDS011;11795;47.054;15.408;2023-08-07T10:56:01;0.6;;;0.3;;
23252;SDS011;11795;47.054;15.408;2023-08-07T10:58:00;0.5;;;0.3;;
23252;SDS011;11795;47.054;15.408;2023-08-07T11:00:02;0.5;;;0.3;;
23252;SDS011;11795;47.054;15.408;2023-08-07T11:02:00;0.5;;;0.3;;
23252;SDS011;11795;47.054;15.408;2023-08-07T11:04:06;0.3;;;0.1;;
23252;SDS011;11795;47.054;15.408;2023-08-07T11:06:00;0.3;;;0.1;;
23252;SDS011;11795;47.054;15.408;2023-08-07T11:08:00;0.4;;;0.2;;
23252;SDS011;11795;47.054;15.408;2023-08-07T11:10:00;0.4;;;0.2;;
23252;SDS011;11795;47.054;15.408;2023-08-07T11:12:00;0.4;;;0.2;;
23252;SDS011;11795;47.054;15.408;2023-08-07T11:14:00;0.2;;;0.2;;
23252;SDS011;11795;47.054;15.408;2023-08-07T11:16:01;0.2;;;0.2;;
23252;SDS011;11795;47.054;15.408;2023-08-07T11:18:00;1.1;;;0.7;;
23252;SDS011;11795;47.054;15.408;2023-08-07T11:20:00;1.1;;;0.7;;
23252;SDS011;11795;47.054;15.408;2023-08-07T11:22:00;1.1;;;0.7;;
23252;SDS011;11795;47.054;15.408;2023-08-07T11:24:01;0.8;;;0.5;;
23252;SDS011;11795;47.054;15.408;2023-08-07T11:26:00;0.8;;;0.5;;
23252;SDS011;11795;47.054;15.408;2023-08-07T11:28:00;0.3;;;0.2;;
23252;SDS011;11795;47.054;15.408;2023-08-07T11:30:00;0.3;;;0.2;;
23252;SDS011;11795;47.054;15.408;2023-08-07T11:32:00;0.3;;;0.2;;
23252;SDS011;11795;47.054;15.408;2023-08-07T11:34:02;0.3;;;0.2;;
23252;SDS011;11795;47.054;15.408;2023-08-07T11:36:00;0.3;;;0.2;;
23252;SDS011;11795;47.054;15.408;2023-08-07T11:38:00;0.3;;;0.2;;
23252;SDS011;11795;47.054;15.408;2023-08-07T11:40:01;0.3;;;0.2;;
23252;SDS011;11795;47.054;15.408;2023-08-07T11:42:00;0.3;;;0.2;;
23252;SDS011;11795;47.054;15.408;2023-08-07T11:44:00;0.7;;;0.2;;
23252;SDS011;11795;47.054;15.408;2023-08-07T11:46:01;0.7;;;0.2;;
23252;SDS011;11795;47.054;15.408;2023-08-07T11:48:01;0.7;;;0.2;;
23252;SDS011;11795;47.054;15.408;2023-08-07T11:50:01;0.4;;;0.1;;
23252;SDS011;11795;47.054;15.408;2023-08-07T11:52:00;0.4;;;0.1;;
23252;SDS011;11795;47.054;15.408;2023-08-07T11:54:00;0.7;;;0.2;;
23252;SDS011;11795;47.054;15.408;2023-08-07T11:56:01;0.7;;;0.2;;
23252;SDS011;11795;47.054;15.408;2023-08-07T11:58:02;0.7;;;0.2;;
23252;SDS011;11795;47.054;15.408;2023-08-07T12:00:00;0.4;;;0.2;;
23252;SDS011;11795;47.054;15.408;2023-08-07T12:02:08;0.4;;;0.2;;
23252;SDS011;11795;47.054;15.408;2023-08-07T12:04:08;0.9;;;0.3;;
23252;SDS011;11795;47.054;15.408;2023-08-07T12:06:02;0.9;;;0.3;;
23252;SDS011;11795;47.054;15.408;2023-08-07T12:08:00;0.9;;;0.3;;
23252;SDS011;11795;47.054;15.408;2023-08-07T12:10:01;0.9;;;0.3;;
23252;SDS011;11795;47.054;15.408;2023-08-07T12:12:00;0.9;;;0.3;;